createdAt,value
2023-04-11T00:01:22.052Z,7.78
2023-04-11T00:03:48.294Z,8.85
2023-04-11T00:06:14.297Z,8.52
2023-04-11T00:08:40.179Z,8.68
2023-04-11T00:11:06.550Z,8.95
2023-04-11T00:13:33.575Z,6.85
2023-04-11T00:16:01.437Z,7.90
2023-04-11T00:18:27.186Z,10.02
2023-04-11T00:20:52.913Z,7.25
2023-04-11T00:23:18.664Z,8.10
2023-04-11T00:25:44.458Z,6.80
2023-04-11T00:28:10.313Z,7.65
2023-04-11T00:30:36.137Z,9.07
2023-04-11T00:33:03.189Z,8.07
2023-04-11T00:35:29.388Z,9.05
2023-04-11T00:37:55.540Z,9.93
2023-04-11T00:40:21.603Z,8.35
2023-04-11T00:42:47.830Z,7.95
2023-04-11T00:45:13.956Z,8.63
2023-04-11T00:47:40.334Z,8.45
2023-04-11T00:50:06.598Z,8.98
2023-04-11T00:52:32.478Z,7.50
2023-04-11T00:54:58.592Z,7.50
2023-04-11T00:57:25.345Z,9.25
2023-04-11T00:59:51.422Z,7.35
2023-04-11T01:02:18.180Z,6.90
2023-04-11T01:04:44.727Z,7.40
2023-04-11T01:07:11.160Z,8.45
2023-04-11T01:09:36.989Z,7.38
2023-04-11T01:12:03.622Z,8.15
2023-04-11T01:14:29.576Z,6.80
2023-04-11T01:17:01.514Z,8.00
2023-04-11T01:19:27.370Z,10.93
2023-04-11T01:21:55.180Z,7.68
2023-04-11T01:24:20.942Z,6.95
2023-04-11T01:26:46.741Z,6.35
2023-04-11T01:29:12.581Z,6.25
2023-04-11T01:31:38.314Z,9.30
2023-04-11T01:34:04.397Z,6.65
2023-04-11T01:36:30.930Z,7.93
2023-04-11T01:38:56.849Z,7.35
2023-04-11T01:41:23.991Z,6.65
2023-04-11T01:43:49.777Z,6.38
2023-04-11T01:46:16.246Z,7.32
2023-04-11T01:48:42.823Z,6.47
2023-04-11T01:51:08.772Z,7.35
2023-04-11T01:53:34.506Z,6.90
2023-04-11T01:56:00.354Z,6.82
2023-04-11T01:58:26.104Z,7.03
2023-04-11T02:00:51.806Z,6.93
2023-04-11T02:03:18.183Z,7.32
2023-04-11T02:05:43.983Z,6.90
2023-04-11T02:08:10.657Z,7.60
2023-04-11T02:10:36.400Z,7.25
2023-04-11T02:13:02.111Z,5.93
2023-04-11T02:15:27.889Z,7.97
2023-04-11T02:17:53.753Z,6.47
2023-04-11T02:20:22.629Z,5.25
2023-04-11T02:22:48.451Z,6.55
2023-04-11T02:25:14.208Z,6.43
2023-04-11T02:27:39.921Z,7.28
2023-04-11T02:30:06.166Z,6.30
2023-04-11T02:32:33.642Z,7.38
2023-04-11T02:34:59.827Z,7.15
2023-04-11T02:37:25.747Z,7.40
2023-04-11T02:39:51.493Z,7.72
2023-04-11T02:42:17.235Z,8.55
2023-04-11T02:44:42.979Z,9.30
2023-04-11T02:47:11.824Z,6.60
2023-04-11T02:49:40.475Z,6.35
2023-04-11T02:52:06.195Z,7.85
2023-04-11T02:54:31.960Z,10.95
2023-04-11T02:56:57.690Z,6.32
2023-04-11T02:59:23.512Z,9.07
2023-04-11T03:01:49.398Z,5.75
2023-04-11T03:04:15.191Z,6.32
2023-04-11T03:06:41.037Z,9.88
2023-04-11T03:09:06.834Z,8.48
2023-04-11T03:11:32.575Z,6.65
2023-04-11T03:13:58.319Z,8.20
2023-04-11T03:16:25.020Z,6.75
2023-04-11T03:18:50.795Z,6.38
2023-04-11T03:21:16.511Z,6.85
2023-04-11T03:23:42.588Z,9.23
2023-04-11T03:26:08.391Z,8.02
2023-04-11T03:28:34.111Z,9.73
2023-04-11T03:30:59.900Z,8.18
2023-04-11T03:33:25.680Z,6.35
2023-04-11T03:35:51.519Z,6.78
2023-04-11T03:38:17.291Z,7.43
2023-04-11T03:40:43.034Z,8.88
2023-04-11T03:43:08.763Z,8.60
2023-04-11T03:45:34.524Z,6.50
2023-04-11T03:48:00.341Z,5.45
2023-04-11T03:50:26.220Z,9.18
2023-04-11T03:52:51.935Z,8.00
2023-04-11T03:55:17.920Z,8.38
2023-04-11T03:57:43.659Z,8.40
2023-04-11T04:00:10.150Z,12.82
2023-04-11T04:02:36.239Z,10.95
2023-04-11T04:05:02.223Z,8.85
2023-04-11T04:07:28.089Z,7.80
2023-04-11T04:09:54.683Z,12.40
2023-04-11T04:12:20.843Z,8.25
2023-04-11T04:14:46.854Z,9.90
2023-04-11T04:17:13.294Z,11.32
2023-04-11T04:19:39.154Z,12.60
2023-04-11T04:22:05.323Z,12.35
2023-04-11T04:24:31.314Z,11.30
2023-04-11T04:27:00.324Z,12.90
2023-04-11T04:29:33.343Z,13.52
2023-04-11T04:32:00.974Z,10.45
2023-04-11T04:34:28.468Z,12.60
2023-04-11T04:36:58.766Z,15.68
2023-04-11T04:39:24.792Z,15.85
2023-04-11T04:42:00.681Z,13.88
2023-04-11T04:44:26.852Z,13.20
2023-04-11T04:46:56.223Z,17.30
2023-04-11T04:49:22.397Z,10.38
2023-04-11T04:51:48.159Z,10.98
2023-04-11T04:54:15.288Z,12.93
2023-04-11T04:56:41.085Z,10.73
2023-04-11T04:59:07.404Z,12.55
2023-04-11T05:01:34.547Z,10.15
2023-04-11T05:04:01.349Z,14.88
2023-04-11T05:06:33.554Z,13.60
2023-04-11T05:09:00.847Z,11.00
2023-04-11T05:11:27.378Z,11.25
2023-04-11T05:13:53.265Z,13.25
2023-04-11T05:16:28.278Z,10.13
2023-04-11T05:18:54.117Z,12.85
2023-04-11T05:21:22.206Z,11.73
2023-04-11T05:23:48.484Z,14.60
2023-04-11T05:26:14.457Z,12.93
2023-04-11T05:28:44.910Z,8.18
2023-04-11T05:31:11.512Z,12.20
2023-04-11T05:33:41.442Z,12.48
2023-04-11T05:36:07.815Z,12.87
2023-04-11T05:38:33.997Z,11.57
2023-04-11T05:41:02.314Z,12.10
2023-04-11T05:43:28.322Z,12.13
2023-04-11T05:46:04.391Z,9.82
2023-04-11T05:48:30.439Z,10.55
2023-04-11T05:50:59.360Z,11.05
2023-04-11T05:53:25.869Z,13.00
2023-04-11T05:55:53.747Z,11.30
2023-04-11T05:58:22.304Z,11.20
2023-04-11T06:00:49.191Z,11.07
2023-04-11T06:03:15.081Z,11.48
2023-04-11T06:05:42.730Z,11.70
2023-04-11T06:08:08.744Z,12.73
2023-04-11T06:10:35.194Z,13.60
2023-04-11T06:13:01.708Z,12.52
2023-04-11T06:15:28.466Z,11.55
2023-04-11T06:17:56.812Z,12.43
2023-04-11T06:20:23.620Z,11.82
2023-04-11T06:22:52.955Z,17.70
2023-04-11T06:25:19.970Z,12.18
2023-04-11T06:27:46.093Z,12.73
2023-04-11T06:30:13.432Z,12.32
2023-04-11T06:32:40.707Z,9.90
2023-04-11T06:35:09.749Z,12.45
2023-04-11T06:37:35.818Z,13.10
2023-04-11T06:40:04.256Z,11.40
2023-04-11T06:42:30.823Z,15.70
2023-04-11T06:44:56.762Z,10.10
2023-04-11T06:47:22.688Z,10.93
2023-04-11T06:49:48.661Z,10.63
2023-04-11T06:52:14.818Z,10.57
2023-04-11T06:54:45.037Z,12.45
2023-04-11T06:57:13.996Z,9.88
2023-04-11T06:59:48.657Z,9.98
2023-04-11T07:02:15.016Z,11.05
2023-04-11T07:04:41.514Z,9.88
2023-04-11T07:07:07.784Z,11.80
2023-04-11T07:09:33.923Z,12.75
2023-04-11T07:12:03.995Z,9.70
2023-04-11T07:14:30.059Z,11.80
2023-04-11T07:17:02.146Z,10.30
2023-04-11T07:19:28.309Z,10.48
2023-04-11T07:21:54.169Z,9.57
2023-04-11T07:24:20.616Z,9.60
2023-04-11T07:26:51.569Z,9.27
2023-04-11T07:29:28.557Z,11.50
2023-04-11T07:31:54.417Z,10.23
2023-04-11T07:34:20.561Z,10.80
2023-04-11T07:36:49.700Z,11.02
2023-04-11T07:39:17.281Z,8.95
2023-04-11T07:41:44.272Z,9.20
2023-04-11T07:44:10.304Z,7.75
2023-04-11T07:46:49.478Z,8.63
2023-04-11T07:49:15.914Z,5.60
2023-04-11T07:51:42.391Z,7.85
2023-04-11T07:54:09.350Z,7.78
2023-04-11T07:56:38.151Z,7.15
2023-04-11T07:59:04.036Z,8.95
2023-04-11T08:01:32.935Z,7.13
2023-04-11T08:06:43.994Z,4.28
2023-04-11T08:09:10.326Z,8.18
2023-04-11T08:14:16.942Z,5.03
2023-04-11T08:16:55.765Z,5.80
2023-04-11T08:19:25.074Z,3.75
2023-04-11T08:21:52.244Z,4.07
2023-04-11T08:24:18.220Z,4.60
2023-04-11T08:26:44.868Z,4.95
2023-04-11T08:29:14.588Z,7.45
2023-04-11T08:31:46.530Z,7.53
2023-04-11T08:34:12.759Z,5.75
2023-04-11T08:36:38.784Z,6.93
2023-04-11T08:39:04.880Z,10.20
2023-04-11T08:41:31.669Z,3.97
2023-04-11T08:43:57.980Z,6.00
2023-04-11T08:46:40.228Z,4.28
2023-04-11T08:49:06.677Z,5.05
2023-04-11T08:51:33.138Z,7.43
2023-04-11T08:54:03.660Z,9.02
2023-04-11T08:56:29.781Z,5.35
2023-04-11T08:58:55.868Z,6.40
2023-04-11T09:01:31.544Z,6.43
2023-04-11T09:03:58.602Z,5.15
2023-04-11T09:06:26.251Z,9.82
2023-04-11T09:08:52.107Z,12.32
2023-04-11T09:11:18.369Z,5.18
2023-04-11T09:13:44.195Z,9.10
2023-04-11T09:16:14.211Z,6.43
2023-04-11T09:18:41.478Z,9.88
2023-04-11T09:21:08.205Z,10.50
2023-04-11T09:23:35.498Z,10.43
2023-04-11T09:26:01.831Z,3.40
2023-04-11T09:28:28.235Z,5.07
2023-04-11T09:30:55.086Z,7.07
2023-04-11T09:33:22.794Z,4.45
2023-04-11T09:35:52.319Z,4.28
2023-04-11T09:38:38.482Z,3.95
2023-04-11T09:41:04.939Z,7.45
2023-04-11T09:43:48.497Z,7.22
2023-04-11T09:46:24.711Z,5.07
2023-04-11T09:48:52.841Z,5.25
2023-04-11T09:51:34.266Z,3.80
2023-04-11T09:54:02.669Z,9.63
2023-04-11T09:56:30.386Z,3.67
2023-04-11T09:58:56.641Z,4.80
2023-04-11T10:01:23.729Z,6.38
2023-04-11T10:03:50.504Z,6.18
2023-04-11T10:06:22.277Z,4.93
2023-04-11T10:08:49.386Z,4.32
2023-04-11T10:11:18.080Z,6.22
2023-04-11T10:13:45.021Z,4.75
2023-04-11T10:16:22.113Z,5.72
2023-04-11T10:18:54.415Z,8.32
2023-04-11T10:21:29.694Z,7.40
2023-04-11T10:24:08.457Z,3.58
2023-04-11T10:26:53.495Z,5.68
2023-04-11T10:29:28.946Z,3.45
2023-04-11T10:32:18.989Z,4.95
2023-04-11T10:34:53.864Z,3.55
2023-04-11T10:37:32.893Z,6.35
2023-04-11T10:40:02.746Z,2.45
2023-04-11T10:42:36.488Z,3.22
2023-04-11T10:45:32.485Z,5.55
2023-04-11T10:48:18.243Z,5.20
2023-04-11T10:50:44.355Z,4.55
2023-04-11T10:53:33.260Z,3.53
2023-04-11T10:56:00.519Z,3.75
2023-04-11T10:58:33.936Z,4.63
2023-04-11T11:01:00.051Z,5.93
2023-04-11T11:03:29.537Z,3.05
2023-04-11T11:06:05.686Z,5.35
2023-04-11T11:08:37.514Z,7.25
2023-04-11T11:11:05.832Z,2.65
2023-04-11T11:13:40.821Z,3.38
2023-04-11T11:16:07.668Z,4.60
2023-04-11T11:18:34.291Z,3.72
2023-04-11T11:21:00.720Z,3.38
2023-04-11T11:23:26.651Z,5.07
2023-04-11T11:26:02.254Z,2.10
2023-04-11T11:30:56.586Z,4.18
2023-04-11T11:33:23.812Z,4.10
2023-04-11T11:35:54.076Z,3.92
2023-04-11T11:38:20.244Z,2.65
2023-04-11T11:40:47.277Z,2.83
2023-04-11T11:43:13.409Z,6.97
2023-04-11T11:45:39.297Z,3.45
2023-04-11T11:48:05.444Z,2.17
2023-04-11T11:50:31.919Z,2.45
2023-04-11T11:53:20.496Z,1.67
2023-04-11T11:55:46.511Z,5.22
2023-04-11T11:58:12.476Z,3.55
2023-04-11T12:00:39.568Z,3.67
2023-04-11T12:03:06.907Z,5.18
2023-04-11T12:05:33.451Z,3.20
2023-04-11T12:08:00.689Z,9.27
2023-04-11T12:10:28.679Z,3.00
2023-04-11T12:12:54.642Z,2.33
2023-04-11T12:15:21.689Z,1.88
2023-04-11T12:17:49.009Z,2.92
2023-04-11T12:20:15.270Z,1.55
2023-04-11T12:22:41.437Z,2.60
2023-04-11T12:25:08.602Z,2.00
2023-04-11T12:27:36.975Z,4.78
2023-04-11T12:30:03.557Z,1.98
2023-04-11T12:32:29.787Z,4.32
2023-04-11T12:34:55.972Z,2.80
2023-04-11T12:37:21.936Z,2.70
2023-04-11T12:39:47.804Z,2.92
2023-04-11T12:42:15.114Z,1.45
2023-04-11T12:44:43.096Z,2.92
2023-04-11T12:47:09.082Z,8.63
2023-04-11T12:49:35.245Z,5.65
2023-04-11T12:52:01.056Z,2.10
2023-04-11T12:54:27.234Z,2.50
2023-04-11T12:56:53.309Z,4.20
2023-04-11T12:59:19.615Z,7.13
2023-04-11T13:01:46.231Z,1.15
2023-04-11T13:04:12.982Z,1.98
2023-04-11T13:06:39.952Z,1.63
2023-04-11T13:09:13.905Z,3.35
2023-04-11T13:11:44.867Z,1.60
2023-04-11T13:16:54.249Z,2.42
2023-04-11T13:19:20.608Z,5.18
2023-04-11T13:22:01.267Z,2.28
2023-04-11T13:24:35.995Z,10.23
2023-04-11T13:27:03.147Z,23.05
2023-04-11T13:29:29.195Z,12.35
2023-04-11T13:31:55.113Z,6.43
2023-04-11T13:34:22.839Z,5.47
2023-04-11T13:36:48.785Z,10.27
2023-04-11T13:39:25.115Z,5.50
2023-04-11T13:41:51.005Z,3.38
2023-04-11T13:44:17.383Z,2.42
2023-04-11T13:46:54.183Z,3.08
2023-04-11T13:49:20.144Z,4.22
2023-04-11T13:51:46.970Z,5.32
2023-04-11T13:57:09.017Z,1.10
2023-04-11T13:59:35.838Z,1.27
2023-04-11T14:02:10.554Z,2.55
2023-04-11T14:04:37.167Z,1.73
2023-04-11T14:07:03.689Z,2.10
2023-04-11T14:09:42.879Z,1.55
2023-04-11T14:15:29.353Z,3.58
2023-04-11T14:20:43.724Z,4.32
2023-04-11T14:23:11.516Z,3.50
2023-04-11T14:25:39.039Z,1.48
2023-04-11T14:28:06.660Z,2.55
2023-04-11T14:33:19.163Z,2.60
2023-04-11T14:35:47.693Z,1.75
2023-04-11T14:41:00.664Z,1.75
2023-04-11T14:43:26.624Z,1.70
2023-04-11T14:45:57.511Z,1.63
2023-04-11T14:50:52.058Z,4.97
2023-04-11T14:53:27.073Z,3.30
2023-04-11T14:55:52.899Z,3.65
2023-04-11T14:58:18.987Z,2.00
2023-04-11T15:00:45.147Z,2.35
2023-04-11T15:03:12.826Z,4.63
2023-04-11T15:05:40.632Z,1.73
2023-04-11T15:08:08.238Z,2.22
2023-04-11T15:10:34.046Z,1.42
2023-04-11T15:13:00.181Z,1.55
2023-04-11T15:15:26.070Z,2.95
2023-04-11T15:18:12.565Z,1.95
2023-04-11T15:20:41.155Z,2.15
2023-04-11T15:23:16.263Z,5.45
2023-04-11T15:25:47.801Z,2.65
2023-04-11T15:28:14.358Z,1.13
2023-04-11T15:30:46.590Z,2.50
2023-04-11T15:33:12.954Z,3.30
2023-04-11T15:35:42.721Z,4.05
2023-04-11T15:38:09.404Z,1.57
2023-04-11T15:40:35.947Z,1.85
2023-04-11T15:43:03.105Z,3.63
2023-04-11T15:45:29.056Z,2.65
2023-04-11T15:47:56.297Z,5.07
2023-04-11T15:50:22.226Z,4.57
2023-04-11T15:52:48.040Z,9.20
2023-04-11T15:55:14.828Z,1.95
2023-04-11T15:57:40.601Z,1.92
2023-04-11T16:00:10.154Z,4.15
2023-04-11T16:02:36.875Z,2.78
2023-04-11T16:05:03.578Z,2.50
2023-04-11T16:07:29.578Z,1.45
2023-04-11T16:09:56.100Z,3.03
2023-04-11T16:12:21.856Z,1.88
2023-04-11T16:14:47.649Z,3.97
2023-04-11T16:17:18.385Z,3.25
2023-04-11T16:22:11.362Z,4.72
2023-04-11T16:24:37.365Z,3.28
2023-04-11T16:27:03.455Z,2.95
2023-04-11T16:29:29.759Z,2.45
2023-04-11T16:31:55.576Z,4.97
2023-04-11T16:34:21.428Z,3.58
2023-04-11T16:36:47.269Z,1.25
2023-04-11T16:39:13.112Z,1.25
2023-04-11T16:41:39.099Z,2.67
2023-04-11T16:44:05.368Z,2.25
2023-04-11T16:46:41.076Z,1.90
2023-04-11T16:49:07.046Z,1.50
2023-04-11T16:51:33.100Z,2.30
2023-04-11T16:53:59.127Z,4.18
2023-04-11T16:56:26.623Z,1.85
2023-04-11T16:58:53.260Z,2.60
2023-04-11T17:01:19.149Z,3.55
2023-04-11T17:03:45.647Z,3.47
2023-04-11T17:06:15.190Z,1.83
2023-04-11T17:08:41.799Z,1.85
2023-04-11T17:11:11.170Z,2.70
2023-04-11T17:13:37.520Z,4.03
2023-04-11T17:16:03.851Z,3.35
2023-04-11T17:18:29.760Z,2.80
2023-04-11T17:20:55.935Z,3.00
2023-04-11T17:23:31.890Z,2.00
2023-04-11T17:26:05.578Z,1.92
2023-04-11T17:28:32.204Z,3.20
2023-04-11T17:30:58.694Z,3.38
2023-04-11T17:33:25.246Z,2.90
2023-04-11T17:35:53.174Z,4.15
2023-04-11T17:38:19.222Z,4.53
2023-04-11T17:40:45.728Z,4.50
2023-04-11T17:43:11.847Z,3.90
2023-04-11T17:45:37.934Z,1.83
2023-04-11T17:48:07.791Z,3.70
2023-04-11T17:50:34.266Z,2.37
2023-04-11T17:53:00.147Z,2.15
2023-04-11T17:55:26.086Z,1.63
2023-04-11T17:57:53.231Z,3.30
2023-04-11T18:00:22.326Z,2.30
2023-04-11T18:02:52.590Z,1.98
2023-04-11T18:05:24.559Z,2.47
2023-04-11T18:07:51.986Z,4.50
2023-04-11T18:10:18.051Z,2.38
2023-04-11T18:12:48.528Z,3.65
2023-04-11T18:15:39.461Z,2.90
2023-04-11T18:20:35.206Z,3.30
2023-04-11T18:23:02.183Z,1.42
2023-04-11T18:25:28.004Z,1.75
2023-04-11T18:27:55.043Z,5.03
2023-04-11T18:30:20.909Z,2.83
2023-04-11T18:32:50.245Z,2.55
2023-04-11T18:35:16.731Z,2.33
2023-04-11T18:37:42.735Z,3.58
2023-04-11T18:40:15.563Z,1.83
2023-04-11T18:42:42.480Z,2.65
2023-04-11T18:45:08.721Z,2.55
2023-04-11T18:47:35.045Z,5.32
2023-04-11T18:50:01.127Z,3.97
2023-04-11T18:52:28.677Z,2.50
2023-04-11T18:54:55.991Z,4.57
2023-04-11T18:57:22.546Z,4.30
2023-04-11T18:59:50.647Z,1.63
2023-04-11T19:02:18.142Z,1.58
2023-04-11T19:04:46.203Z,2.75
2023-04-11T19:07:13.325Z,3.53
2023-04-11T19:09:39.130Z,1.75
2023-04-11T19:12:05.824Z,3.60
2023-04-11T19:14:32.164Z,3.53
2023-04-11T19:17:17.136Z,4.80
2023-04-11T19:19:43.153Z,2.17
2023-04-11T19:22:09.961Z,3.70
2023-04-11T19:24:35.684Z,6.25
2023-04-11T19:27:01.576Z,1.92
2023-04-11T19:29:27.597Z,5.25
2023-04-11T19:31:53.700Z,6.03
2023-04-11T19:34:19.484Z,4.75
2023-04-11T19:36:45.337Z,2.22
2023-04-11T19:39:11.178Z,2.75
2023-04-11T19:41:37.070Z,3.80
2023-04-11T19:44:03.252Z,6.03
2023-04-11T19:46:29.064Z,2.20
2023-04-11T19:48:56.068Z,3.20
2023-04-11T19:51:22.406Z,3.72
2023-04-11T19:53:48.511Z,3.17
2023-04-11T19:56:14.743Z,2.78
2023-04-11T19:58:41.050Z,4.28
2023-04-11T20:01:07.657Z,3.42
2023-04-11T20:03:33.902Z,3.17
2023-04-11T20:06:00.176Z,3.95
2023-04-11T20:08:26.242Z,4.22
2023-04-11T20:10:52.610Z,3.28
2023-04-11T20:13:18.424Z,4.45
2023-04-11T20:15:44.859Z,4.13
2023-04-11T20:18:11.291Z,3.38
2023-04-11T20:20:37.923Z,3.78
2023-04-11T20:23:04.412Z,4.55
2023-04-11T20:25:32.091Z,2.00
2023-04-11T20:27:58.246Z,2.38
2023-04-11T20:30:24.140Z,2.40
2023-04-11T20:32:50.052Z,2.80
2023-04-11T20:35:16.087Z,7.50
2023-04-11T20:37:44.613Z,2.95
2023-04-11T20:40:10.851Z,4.85
2023-04-11T20:42:45.148Z,1.95
2023-04-11T20:45:12.217Z,3.50
2023-04-11T20:47:38.623Z,4.32
2023-04-11T20:50:05.174Z,3.67
2023-04-11T20:52:31.988Z,3.45
2023-04-11T20:54:58.172Z,3.20
2023-04-11T20:57:24.135Z,3.88
2023-04-11T20:59:50.108Z,3.65
2023-04-11T21:02:16.492Z,3.28
2023-04-11T21:04:42.474Z,2.45
2023-04-11T21:07:09.135Z,5.90
2023-04-11T21:09:35.743Z,3.47
2023-04-11T21:12:01.634Z,5.57
2023-04-11T21:14:27.479Z,2.95
2023-04-11T21:16:53.321Z,5.85
2023-04-11T21:19:19.171Z,4.45
2023-04-11T21:21:45.361Z,3.15
2023-04-11T21:24:11.606Z,3.28
2023-04-11T21:26:37.729Z,4.93
2023-04-11T21:29:03.487Z,1.88
2023-04-11T21:31:29.326Z,4.22
2023-04-11T21:33:55.314Z,5.07
2023-04-11T21:36:21.351Z,8.27
2023-04-11T21:38:47.473Z,8.63
2023-04-11T21:41:13.315Z,3.88
2023-04-11T21:43:39.085Z,2.35
2023-04-11T21:46:04.917Z,5.85
2023-04-11T21:48:30.722Z,3.25
2023-04-11T21:50:56.457Z,6.05
2023-04-11T21:53:22.254Z,4.72
2023-04-11T21:55:48.339Z,3.42
2023-04-11T21:58:28.052Z,4.55
2023-04-11T22:00:55.173Z,5.30
2023-04-11T22:03:21.100Z,3.58
2023-04-11T22:05:49.390Z,6.97
2023-04-11T22:08:19.212Z,3.33
2023-04-11T22:10:47.641Z,4.93
2023-04-11T22:13:15.201Z,4.10
2023-04-11T22:15:41.502Z,3.88
2023-04-11T22:18:10.721Z,5.32
2023-04-11T22:20:39.979Z,2.47
2023-04-11T22:23:08.496Z,4.82
2023-04-11T22:25:36.698Z,4.07
2023-04-11T22:28:03.487Z,4.50
2023-04-11T22:30:29.487Z,4.60
2023-04-11T22:32:55.258Z,6.38
2023-04-11T22:35:21.582Z,4.40
2023-04-11T22:37:47.491Z,4.00
2023-04-11T22:40:14.852Z,3.42
2023-04-11T22:42:41.025Z,6.10
2023-04-11T22:45:07.527Z,2.90
2023-04-11T22:47:33.690Z,4.88
2023-04-11T22:50:00.794Z,6.53
2023-04-11T22:52:29.410Z,5.88
2023-04-11T22:54:55.654Z,5.15
2023-04-11T22:57:21.400Z,2.38
2023-04-11T22:59:47.411Z,4.05
2023-04-11T23:02:13.160Z,3.55
2023-04-11T23:04:38.930Z,5.95
2023-04-11T23:07:04.653Z,2.78
2023-04-11T23:09:31.699Z,10.35
2023-04-11T23:11:57.740Z,5.75
2023-04-11T23:14:30.243Z,2.65
2023-04-11T23:16:56.477Z,2.47
2023-04-11T23:19:22.345Z,6.40
2023-04-11T23:21:48.482Z,4.10
2023-04-11T23:24:15.301Z,3.35
2023-04-11T23:26:41.279Z,3.28
2023-04-11T23:29:08.067Z,3.55
2023-04-11T23:31:34.349Z,10.82
2023-04-11T23:34:00.690Z,3.25
2023-04-11T23:36:27.262Z,6.97
2023-04-11T23:38:53.018Z,2.53
2023-04-11T23:41:19.587Z,3.15
2023-04-11T23:43:45.451Z,8.02
2023-04-11T23:46:11.784Z,4.32
2023-04-11T23:48:37.565Z,6.78
2023-04-11T23:51:03.398Z,3.58
2023-04-11T23:53:29.126Z,11.73
2023-04-11T23:55:54.880Z,7.32
2023-04-11T23:58:20.774Z,2.88
